sensor_id;sensor_type;location;lat;lon;timestamp;P1;durP1;ratioP1;P2;durP2;ratioP2
77736;SDS011;66903;59.926;30.404;2023-04-24T00:04:52;3.90;;;1.30;;
77736;SDS011;66903;59.926;30.404;2023-04-24T00:09:53;3.72;;;1.20;;
77736;SDS011;66903;59.926;30.404;2023-04-24T00:14:54;3.05;;;1.00;;
77736;SDS011;66903;59.926;30.404;2023-04-24T00:19:54;3.45;;;1.10;;
77736;SDS011;66903;59.926;30.404;2023-04-24T00:24:58;2.88;;;1.08;;
77736;SDS011;66903;59.926;30.404;2023-04-24T00:29:59;2.83;;;0.88;;
77736;SDS011;66903;59.926;30.404;2023-04-24T00:34:59;2.90;;;1.00;;
77736;SDS011;66903;59.926;30.404;2023-04-24T00:40:00;2.92;;;1.00;;
77736;SDS011;66903;59.926;30.404;2023-04-24T00:45:01;3.50;;;1.15;;
77736;SDS011;66903;59.926;30.404;2023-04-24T00:50:03;2.42;;;1.00;;
77736;SDS011;66903;59.926;30.404;2023-04-24T00:55:05;2.90;;;0.90;;
77736;SDS011;66903;59.926;30.404;2023-04-24T01:00:07;2.30;;;0.95;;
77736;SDS011;66903;59.926;30.404;2023-04-24T01:05:11;1.95;;;0.80;;
77736;SDS011;66903;59.926;30.404;2023-04-24T01:10:13;3.17;;;0.95;;
77736;SDS011;66903;59.926;30.404;2023-04-24T01:15:14;3.20;;;0.90;;
77736;SDS011;66903;59.926;30.404;2023-04-24T01:20:15;2.75;;;0.95;;
77736;SDS011;66903;59.926;30.404;2023-04-24T01:25:17;3.38;;;1.02;;
77736;SDS011;66903;59.926;30.404;2023-04-24T01:30:17;3.25;;;0.85;;
77736;SDS011;66903;59.926;30.404;2023-04-24T01:35:18;3.03;;;0.70;;
77736;SDS011;66903;59.926;30.404;2023-04-24T01:40:20;3.22;;;0.88;;
77736;SDS011;66903;59.926;30.404;2023-04-24T01:45:20;3.65;;;1.27;;
77736;SDS011;66903;59.926;30.404;2023-04-24T01:50:21;3.05;;;0.70;;
77736;SDS011;66903;59.926;30.404;2023-04-24T01:55:21;2.20;;;0.85;;
77736;SDS011;66903;59.926;30.404;2023-04-24T02:00:22;2.85;;;1.00;;
77736;SDS011;66903;59.926;30.404;2023-04-24T02:05:25;2.70;;;0.85;;
77736;SDS011;66903;59.926;30.404;2023-04-24T02:10:25;1.98;;;0.60;;
77736;SDS011;66903;59.926;30.404;2023-04-24T02:15:26;2.33;;;0.73;;
77736;SDS011;66903;59.926;30.404;2023-04-24T02:20:26;2.05;;;0.70;;
77736;SDS011;66903;59.926;30.404;2023-04-24T02:25:27;2.17;;;0.90;;
77736;SDS011;66903;59.926;30.404;2023-04-24T02:30:27;2.38;;;0.90;;
77736;SDS011;66903;59.926;30.404;2023-04-24T02:35:28;2.35;;;1.00;;
77736;SDS011;66903;59.926;30.404;2023-04-24T02:40:29;2.83;;;0.93;;
77736;SDS011;66903;59.926;30.404;2023-04-24T02:45:30;2.53;;;0.80;;
77736;SDS011;66903;59.926;30.404;2023-04-24T02:50:30;1.50;;;0.60;;
77736;SDS011;66903;59.926;30.404;2023-04-24T02:55:31;3.13;;;1.10;;
77736;SDS011;66903;59.926;30.404;2023-04-24T03:00:32;1.73;;;0.75;;
77736;SDS011;66903;59.926;30.404;2023-04-24T03:05:33;2.67;;;0.80;;
77736;SDS011;66903;59.926;30.404;2023-04-24T03:10:33;1.55;;;0.68;;
77736;SDS011;66903;59.926;30.404;2023-04-24T03:15:34;2.55;;;0.88;;
77736;SDS011;66903;59.926;30.404;2023-04-24T03:20:35;2.33;;;0.70;;
77736;SDS011;66903;59.926;30.404;2023-04-24T03:25:37;2.30;;;0.70;;
77736;SDS011;66903;59.926;30.404;2023-04-24T03:30:38;2.20;;;0.73;;
77736;SDS011;66903;59.926;30.404;2023-04-24T03:35:38;2.92;;;0.90;;
77736;SDS011;66903;59.926;30.404;2023-04-24T03:40:39;3.03;;;0.95;;
77736;SDS011;66903;59.926;30.404;2023-04-24T03:45:39;1.80;;;0.70;;
77736;SDS011;66903;59.926;30.404;2023-04-24T03:50:40;2.47;;;0.82;;
77736;SDS011;66903;59.926;30.404;2023-04-24T03:55:40;2.72;;;0.77;;
77736;SDS011;66903;59.926;30.404;2023-04-24T04:00:41;2.65;;;0.90;;
77736;SDS011;66903;59.926;30.404;2023-04-24T04:05:42;2.15;;;0.85;;
77736;SDS011;66903;59.926;30.404;2023-04-24T04:10:42;2.17;;;0.70;;
77736;SDS011;66903;59.926;30.404;2023-04-24T04:15:43;2.35;;;0.80;;
77736;SDS011;66903;59.926;30.404;2023-04-24T04:20:43;3.13;;;1.00;;
77736;SDS011;66903;59.926;30.404;2023-04-24T04:25:44;2.38;;;0.88;;
77736;SDS011;66903;59.926;30.404;2023-04-24T04:30:45;1.65;;;0.60;;
77736;SDS011;66903;59.926;30.404;2023-04-24T04:35:47;3.92;;;1.00;;
77736;SDS011;66903;59.926;30.404;2023-04-24T04:40:52;5.35;;;0.80;;
77736;SDS011;66903;59.926;30.404;2023-04-24T04:45:52;2.42;;;0.80;;
77736;SDS011;66903;59.926;30.404;2023-04-24T04:50:54;6.18;;;0.85;;
77736;SDS011;66903;59.926;30.404;2023-04-24T04:55:55;3.20;;;0.90;;
77736;SDS011;66903;59.926;30.404;2023-04-24T05:00:55;4.20;;;1.10;;
77736;SDS011;66903;59.926;30.404;2023-04-24T05:05:57;2.60;;;0.90;;
77736;SDS011;66903;59.926;30.404;2023-04-24T05:10:58;2.40;;;0.70;;
77736;SDS011;66903;59.926;30.404;2023-04-24T05:15:59;3.05;;;0.90;;
77736;SDS011;66903;59.926;30.404;2023-04-24T05:20:59;1.35;;;0.43;;
77736;SDS011;66903;59.926;30.404;2023-04-24T05:26:00;2.25;;;0.75;;
77736;SDS011;66903;59.926;30.404;2023-04-24T05:31:00;4.88;;;1.02;;
77736;SDS011;66903;59.926;30.404;2023-04-24T05:36:01;2.38;;;0.90;;
77736;SDS011;66903;59.926;30.404;2023-04-24T05:41:01;3.78;;;0.95;;
77736;SDS011;66903;59.926;30.404;2023-04-24T05:46:02;2.50;;;0.90;;
77736;SDS011;66903;59.926;30.404;2023-04-24T05:51:02;3.00;;;0.77;;
77736;SDS011;66903;59.926;30.404;2023-04-24T05:56:03;2.13;;;0.80;;
77736;SDS011;66903;59.926;30.404;2023-04-24T06:01:04;2.53;;;0.82;;
77736;SDS011;66903;59.926;30.404;2023-04-24T06:06:05;3.20;;;0.90;;
77736;SDS011;66903;59.926;30.404;2023-04-24T06:11:06;2.00;;;0.60;;
77736;SDS011;66903;59.926;30.404;2023-04-24T06:16:07;2.05;;;0.75;;
77736;SDS011;66903;59.926;30.404;2023-04-24T06:21:07;4.40;;;1.00;;
77736;SDS011;66903;59.926;30.404;2023-04-24T06:26:08;2.70;;;0.88;;
77736;SDS011;66903;59.926;30.404;2023-04-24T06:31:08;2.80;;;0.80;;
77736;SDS011;66903;59.926;30.404;2023-04-24T06:36:09;2.17;;;0.80;;
77736;SDS011;66903;59.926;30.404;2023-04-24T06:41:10;2.58;;;0.95;;
77736;SDS011;66903;59.926;30.404;2023-04-24T06:46:11;2.47;;;0.85;;
77736;SDS011;66903;59.926;30.404;2023-04-24T06:51:12;3.10;;;0.90;;
77736;SDS011;66903;59.926;30.404;2023-04-24T06:56:12;2.75;;;1.00;;
77736;SDS011;66903;59.926;30.404;2023-04-24T07:01:13;3.65;;;1.30;;
77736;SDS011;66903;59.926;30.404;2023-04-24T07:06:13;3.25;;;1.00;;
77736;SDS011;66903;59.926;30.404;2023-04-24T07:11:14;5.10;;;1.13;;
77736;SDS011;66903;59.926;30.404;2023-04-24T07:16:14;2.78;;;1.02;;
77736;SDS011;66903;59.926;30.404;2023-04-24T07:21:15;3.22;;;0.98;;
77736;SDS011;66903;59.926;30.404;2023-04-24T07:26:16;3.03;;;1.02;;
77736;SDS011;66903;59.926;30.404;2023-04-24T07:31:16;3.50;;;1.05;;
77736;SDS011;66903;59.926;30.404;2023-04-24T07:36:17;3.20;;;1.10;;
77736;SDS011;66903;59.926;30.404;2023-04-24T07:41:18;5.03;;;1.13;;
77736;SDS011;66903;59.926;30.404;2023-04-24T07:46:20;11.40;;;1.85;;
77736;SDS011;66903;59.926;30.404;2023-04-24T07:51:21;3.17;;;1.10;;
77736;SDS011;66903;59.926;30.404;2023-04-24T07:56:22;3.58;;;1.20;;
77736;SDS011;66903;59.926;30.404;2023-04-24T08:01:22;4.50;;;1.00;;
77736;SDS011;66903;59.926;30.404;2023-04-24T08:06:23;3.58;;;0.90;;
77736;SDS011;66903;59.926;30.404;2023-04-24T08:11:24;8.32;;;1.42;;
77736;SDS011;66903;59.926;30.404;2023-04-24T08:16:25;7.68;;;1.20;;
77736;SDS011;66903;59.926;30.404;2023-04-24T08:21:26;4.25;;;1.08;;
77736;SDS011;66903;59.926;30.404;2023-04-24T08:26:27;4.85;;;1.05;;
77736;SDS011;66903;59.926;30.404;2023-04-24T08:31:27;3.42;;;1.10;;
77736;SDS011;66903;59.926;30.404;2023-04-24T08:36:28;3.30;;;1.02;;
77736;SDS011;66903;59.926;30.404;2023-04-24T08:41:28;4.55;;;1.20;;
77736;SDS011;66903;59.926;30.404;2023-04-24T08:46:30;3.63;;;1.00;;
77736;SDS011;66903;59.926;30.404;2023-04-24T08:51:31;4.35;;;1.02;;
77736;SDS011;66903;59.926;30.404;2023-04-24T08:56:31;2.80;;;0.98;;
77736;SDS011;66903;59.926;30.404;2023-04-24T09:01:34;6.40;;;1.20;;
77736;SDS011;66903;59.926;30.404;2023-04-24T09:06:37;4.53;;;1.25;;
77736;SDS011;66903;59.926;30.404;2023-04-24T09:11:37;2.90;;;0.90;;
77736;SDS011;66903;59.926;30.404;2023-04-24T09:16:39;4.97;;;1.20;;
77736;SDS011;66903;59.926;30.404;2023-04-24T09:21:41;3.15;;;1.35;;
77736;SDS011;66903;59.926;30.404;2023-04-24T09:26:46;3.30;;;1.10;;
77736;SDS011;66903;59.926;30.404;2023-04-24T09:31:47;3.47;;;1.05;;
77736;SDS011;66903;59.926;30.404;2023-04-24T09:36:47;3.00;;;0.90;;
77736;SDS011;66903;59.926;30.404;2023-04-24T09:41:48;4.15;;;1.00;;
77736;SDS011;66903;59.926;30.404;2023-04-24T09:46:52;3.88;;;1.10;;
77736;SDS011;66903;59.926;30.404;2023-04-24T09:52:07;1.90;;;0.77;;
77736;SDS011;66903;59.926;30.404;2023-04-24T09:57:09;2.35;;;0.68;;
77736;SDS011;66903;59.926;30.404;2023-04-24T10:02:17;3.40;;;0.80;;
77736;SDS011;66903;59.926;30.404;2023-04-24T10:07:19;2.75;;;0.70;;
77736;SDS011;66903;59.926;30.404;2023-04-24T10:12:19;3.90;;;1.45;;
77736;SDS011;66903;59.926;30.404;2023-04-24T10:17:21;2.90;;;0.77;;
77736;SDS011;66903;59.926;30.404;2023-04-24T10:22:23;2.72;;;0.88;;
77736;SDS011;66903;59.926;30.404;2023-04-24T10:27:25;2.85;;;0.88;;
77736;SDS011;66903;59.926;30.404;2023-04-24T10:32:26;2.55;;;0.80;;
77736;SDS011;66903;59.926;30.404;2023-04-24T10:37:27;3.92;;;0.80;;
77736;SDS011;66903;59.926;30.404;2023-04-24T10:42:28;3.03;;;0.82;;
77736;SDS011;66903;59.926;30.404;2023-04-24T10:47:29;9.13;;;0.90;;
77736;SDS011;66903;59.926;30.404;2023-04-24T10:52:48;2.10;;;0.77;;
77736;SDS011;66903;59.926;30.404;2023-04-24T10:58:04;2.10;;;0.75;;
77736;SDS011;66903;59.926;30.404;2023-04-24T11:03:06;2.78;;;0.93;;
77736;SDS011;66903;59.926;30.404;2023-04-24T11:13:20;2.95;;;0.93;;
77736;SDS011;66903;59.926;30.404;2023-04-24T11:18:22;3.58;;;0.82;;
77736;SDS011;66903;59.926;30.404;2023-04-24T11:23:23;2.95;;;0.90;;
77736;SDS011;66903;59.926;30.404;2023-04-24T11:28:23;2.25;;;0.80;;
77736;SDS011;66903;59.926;30.404;2023-04-24T11:33:24;3.08;;;0.80;;
77736;SDS011;66903;59.926;30.404;2023-04-24T11:38:25;1.70;;;0.60;;
77736;SDS011;66903;59.926;30.404;2023-04-24T11:43:26;3.70;;;0.82;;
77736;SDS011;66903;59.926;30.404;2023-04-24T11:48:28;2.95;;;0.70;;
77736;SDS011;66903;59.926;30.404;2023-04-24T11:53:29;2.78;;;0.80;;
77736;SDS011;66903;59.926;30.404;2023-04-24T11:58:40;2.25;;;0.52;;
77736;SDS011;66903;59.926;30.404;2023-04-24T12:03:40;2.50;;;0.82;;
77736;SDS011;66903;59.926;30.404;2023-04-24T12:08:47;2.75;;;0.80;;
77736;SDS011;66903;59.926;30.404;2023-04-24T12:13:47;1.85;;;0.73;;
77736;SDS011;66903;59.926;30.404;2023-04-24T12:18:50;2.17;;;0.77;;
77736;SDS011;66903;59.926;30.404;2023-04-24T12:23:54;4.03;;;0.95;;
77736;SDS011;66903;59.926;30.404;2023-04-24T12:28:55;2.38;;;0.80;;
77736;SDS011;66903;59.926;30.404;2023-04-24T12:34:03;2.00;;;0.80;;
77736;SDS011;66903;59.926;30.404;2023-04-24T12:39:04;2.08;;;0.70;;
77736;SDS011;66903;59.926;30.404;2023-04-24T12:44:17;3.33;;;0.80;;
77736;SDS011;66903;59.926;30.404;2023-04-24T12:49:18;2.95;;;0.90;;
77736;SDS011;66903;59.926;30.404;2023-04-24T12:54:19;2.03;;;0.77;;
77736;SDS011;66903;59.926;30.404;2023-04-24T12:59:19;1.77;;;0.70;;
77736;SDS011;66903;59.926;30.404;2023-04-24T13:04:20;2.22;;;0.88;;
77736;SDS011;66903;59.926;30.404;2023-04-24T13:09:20;2.00;;;0.85;;
77736;SDS011;66903;59.926;30.404;2023-04-24T13:14:22;4.32;;;0.90;;
77736;SDS011;66903;59.926;30.404;2023-04-24T13:19:25;2.42;;;0.73;;
77736;SDS011;66903;59.926;30.404;2023-04-24T13:24:27;2.17;;;0.80;;
77736;SDS011;66903;59.926;30.404;2023-04-24T13:29:28;2.42;;;0.93;;
77736;SDS011;66903;59.926;30.404;2023-04-24T13:34:29;3.00;;;0.90;;
77736;SDS011;66903;59.926;30.404;2023-04-24T13:39:30;2.60;;;0.90;;
77736;SDS011;66903;59.926;30.404;2023-04-24T13:44:31;1.65;;;0.80;;
77736;SDS011;66903;59.926;30.404;2023-04-24T13:49:31;3.05;;;1.15;;
77736;SDS011;66903;59.926;30.404;2023-04-24T13:54:32;2.65;;;0.90;;
77736;SDS011;66903;59.926;30.404;2023-04-24T13:59:33;2.45;;;0.90;;
77736;SDS011;66903;59.926;30.404;2023-04-24T14:04:33;2.60;;;0.90;;
77736;SDS011;66903;59.926;30.404;2023-04-24T14:09:34;2.90;;;0.80;;
77736;SDS011;66903;59.926;30.404;2023-04-24T14:14:34;4.53;;;1.00;;
77736;SDS011;66903;59.926;30.404;2023-04-24T14:19:35;3.95;;;0.90;;
77736;SDS011;66903;59.926;30.404;2023-04-24T14:24:35;5.53;;;1.15;;
77736;SDS011;66903;59.926;30.404;2023-04-24T14:29:36;19.98;;;1.40;;
77736;SDS011;66903;59.926;30.404;2023-04-24T14:34:36;2.55;;;0.90;;
77736;SDS011;66903;59.926;30.404;2023-04-24T14:39:37;2.72;;;0.88;;
77736;SDS011;66903;59.926;30.404;2023-04-24T14:44:38;3.13;;;1.08;;
77736;SDS011;66903;59.926;30.404;2023-04-24T14:49:38;2.38;;;0.85;;
77736;SDS011;66903;59.926;30.404;2023-04-24T14:54:39;3.95;;;0.98;;
77736;SDS011;66903;59.926;30.404;2023-04-24T14:59:40;3.72;;;1.20;;
77736;SDS011;66903;59.926;30.404;2023-04-24T15:04:40;3.25;;;1.00;;
77736;SDS011;66903;59.926;30.404;2023-04-24T15:09:41;5.10;;;1.13;;
77736;SDS011;66903;59.926;30.404;2023-04-24T15:14:42;3.13;;;1.10;;
77736;SDS011;66903;59.926;30.404;2023-04-24T15:19:43;4.13;;;1.33;;
77736;SDS011;66903;59.926;30.404;2023-04-24T15:24:43;3.55;;;1.20;;
77736;SDS011;66903;59.926;30.404;2023-04-24T15:29:44;3.60;;;1.02;;
77736;SDS011;66903;59.926;30.404;2023-04-24T15:34:45;3.38;;;1.02;;
77736;SDS011;66903;59.926;30.404;2023-04-24T15:39:45;4.75;;;1.20;;
77736;SDS011;66903;59.926;30.404;2023-04-24T15:44:46;2.97;;;1.02;;
77736;SDS011;66903;59.926;30.404;2023-04-24T15:49:46;3.50;;;1.02;;
77736;SDS011;66903;59.926;30.404;2023-04-24T15:54:47;5.93;;;1.30;;
77736;SDS011;66903;59.926;30.404;2023-04-24T15:59:47;3.00;;;1.10;;
77736;SDS011;66903;59.926;30.404;2023-04-24T16:04:48;3.72;;;1.48;;
77736;SDS011;66903;59.926;30.404;2023-04-24T16:09:50;12.32;;;1.30;;
77736;SDS011;66903;59.926;30.404;2023-04-24T16:14:50;2.90;;;1.10;;
77736;SDS011;66903;59.926;30.404;2023-04-24T16:19:51;3.50;;;1.23;;
77736;SDS011;66903;59.926;30.404;2023-04-24T16:24:51;3.22;;;1.02;;
77736;SDS011;66903;59.926;30.404;2023-04-24T16:29:52;3.28;;;1.10;;
77736;SDS011;66903;59.926;30.404;2023-04-24T16:34:53;2.70;;;1.08;;
77736;SDS011;66903;59.926;30.404;2023-04-24T16:39:53;3.30;;;1.20;;
77736;SDS011;66903;59.926;30.404;2023-04-24T16:44:55;3.05;;;1.08;;
77736;SDS011;66903;59.926;30.404;2023-04-24T16:49:55;7.35;;;2.92;;
77736;SDS011;66903;59.926;30.404;2023-04-24T16:54:56;13.27;;;4.60;;
77736;SDS011;66903;59.926;30.404;2023-04-24T16:59:57;10.95;;;3.88;;
77736;SDS011;66903;59.926;30.404;2023-04-24T17:04:58;11.43;;;4.15;;
77736;SDS011;66903;59.926;30.404;2023-04-24T17:09:58;10.68;;;3.22;;
77736;SDS011;66903;59.926;30.404;2023-04-24T17:14:59;8.00;;;3.28;;
77736;SDS011;66903;59.926;30.404;2023-04-24T17:20:00;10.18;;;3.53;;
77736;SDS011;66903;59.926;30.404;2023-04-24T17:25:00;8.70;;;3.22;;
77736;SDS011;66903;59.926;30.404;2023-04-24T17:30:01;6.95;;;2.72;;
77736;SDS011;66903;59.926;30.404;2023-04-24T17:35:01;7.93;;;2.67;;
77736;SDS011;66903;59.926;30.404;2023-04-24T17:40:02;7.70;;;2.47;;
77736;SDS011;66903;59.926;30.404;2023-04-24T17:45:03;9.20;;;2.80;;
77736;SDS011;66903;59.926;30.404;2023-04-24T17:50:04;5.57;;;2.20;;
77736;SDS011;66903;59.926;30.404;2023-04-24T17:55:05;5.85;;;2.20;;
77736;SDS011;66903;59.926;30.404;2023-04-24T18:00:06;4.38;;;1.90;;
77736;SDS011;66903;59.926;30.404;2023-04-24T18:05:07;5.60;;;2.30;;
77736;SDS011;66903;59.926;30.404;2023-04-24T18:10:08;4.80;;;1.88;;
77736;SDS011;66903;59.926;30.404;2023-04-24T18:15:09;7.10;;;2.30;;
77736;SDS011;66903;59.926;30.404;2023-04-24T18:20:11;4.22;;;1.65;;
77736;SDS011;66903;59.926;30.404;2023-04-24T18:25:13;5.00;;;1.88;;
77736;SDS011;66903;59.926;30.404;2023-04-24T18:30:14;4.82;;;1.92;;
77736;SDS011;66903;59.926;30.404;2023-04-24T18:35:15;5.93;;;1.90;;
77736;SDS011;66903;59.926;30.404;2023-04-24T18:40:16;5.32;;;1.52;;
77736;SDS011;66903;59.926;30.404;2023-04-24T18:45:17;4.60;;;1.35;;
77736;SDS011;66903;59.926;30.404;2023-04-24T18:50:17;3.50;;;1.40;;
77736;SDS011;66903;59.926;30.404;2023-04-24T18:55:18;4.53;;;1.90;;
77736;SDS011;66903;59.926;30.404;2023-04-24T19:00:19;3.85;;;1.58;;
77736;SDS011;66903;59.926;30.404;2023-04-24T19:05:19;5.05;;;2.05;;
77736;SDS011;66903;59.926;30.404;2023-04-24T19:10:20;6.05;;;1.77;;
77736;SDS011;66903;59.926;30.404;2023-04-24T19:15:24;3.53;;;1.70;;
77736;SDS011;66903;59.926;30.404;2023-04-24T19:20:25;4.10;;;1.52;;
77736;SDS011;66903;59.926;30.404;2023-04-24T19:25:25;4.13;;;1.33;;
77736;SDS011;66903;59.926;30.404;2023-04-24T19:30:26;4.93;;;1.58;;
77736;SDS011;66903;59.926;30.404;2023-04-24T19:35:27;3.50;;;1.70;;
77736;SDS011;66903;59.926;30.404;2023-04-24T19:40:27;4.90;;;2.45;;
77736;SDS011;66903;59.926;30.404;2023-04-24T19:45:28;6.88;;;3.15;;
77736;SDS011;66903;59.926;30.404;2023-04-24T19:50:29;6.57;;;3.03;;
77736;SDS011;66903;59.926;30.404;2023-04-24T19:55:30;5.90;;;3.00;;
77736;SDS011;66903;59.926;30.404;2023-04-24T20:00:30;6.15;;;2.53;;
77736;SDS011;66903;59.926;30.404;2023-04-24T20:05:31;5.43;;;2.08;;
77736;SDS011;66903;59.926;30.404;2023-04-24T20:10:32;5.65;;;2.50;;
77736;SDS011;66903;59.926;30.404;2023-04-24T20:15:32;4.85;;;1.90;;
77736;SDS011;66903;59.926;30.404;2023-04-24T20:20:33;6.75;;;1.70;;
77736;SDS011;66903;59.926;30.404;2023-04-24T20:25:37;4.35;;;1.73;;
77736;SDS011;66903;59.926;30.404;2023-04-24T20:30:38;5.55;;;1.70;;
77736;SDS011;66903;59.926;30.404;2023-04-24T20:35:38;7.43;;;1.80;;
77736;SDS011;66903;59.926;30.404;2023-04-24T20:40:39;6.40;;;1.90;;
77736;SDS011;66903;59.926;30.404;2023-04-24T20:45:39;5.75;;;2.05;;
77736;SDS011;66903;59.926;30.404;2023-04-24T20:50:40;5.28;;;1.73;;
77736;SDS011;66903;59.926;30.404;2023-04-24T20:55:42;5.30;;;1.80;;
77736;SDS011;66903;59.926;30.404;2023-04-24T21:00:42;7.28;;;1.75;;
77736;SDS011;66903;59.926;30.404;2023-04-24T21:05:44;4.55;;;1.70;;
77736;SDS011;66903;59.926;30.404;2023-04-24T21:10:44;4.85;;;2.17;;
77736;SDS011;66903;59.926;30.404;2023-04-24T21:15:45;6.97;;;1.50;;
77736;SDS011;66903;59.926;30.404;2023-04-24T21:20:46;4.78;;;1.52;;
77736;SDS011;66903;59.926;30.404;2023-04-24T21:25:46;3.90;;;1.70;;
77736;SDS011;66903;59.926;30.404;2023-04-24T21:30:47;4.30;;;1.48;;
77736;SDS011;66903;59.926;30.404;2023-04-24T21:35:47;5.05;;;1.85;;
77736;SDS011;66903;59.926;30.404;2023-04-24T21:40:48;4.82;;;1.63;;
77736;SDS011;66903;59.926;30.404;2023-04-24T21:45:49;4.18;;;1.63;;
77736;SDS011;66903;59.926;30.404;2023-04-24T21:50:51;3.53;;;1.60;;
77736;SDS011;66903;59.926;30.404;2023-04-24T21:55:51;6.50;;;2.85;;
77736;SDS011;66903;59.926;30.404;2023-04-24T22:00:52;3.03;;;1.20;;
77736;SDS011;66903;59.926;30.404;2023-04-24T22:05:52;3.28;;;1.45;;
77736;SDS011;66903;59.926;30.404;2023-04-24T22:10:53;4.22;;;1.38;;
77736;SDS011;66903;59.926;30.404;2023-04-24T22:15:54;3.78;;;1.67;;
77736;SDS011;66903;59.926;30.404;2023-04-24T22:20:55;4.03;;;1.50;;
77736;SDS011;66903;59.926;30.404;2023-04-24T22:25:56;3.75;;;1.50;;
77736;SDS011;66903;59.926;30.404;2023-04-24T22:30:56;4.85;;;1.80;;
77736;SDS011;66903;59.926;30.404;2023-04-24T22:35:57;4.55;;;1.70;;
77736;SDS011;66903;59.926;30.404;2023-04-24T22:40:57;4.60;;;1.70;;
77736;SDS011;66903;59.926;30.404;2023-04-24T22:45:58;4.60;;;1.75;;
77736;SDS011;66903;59.926;30.404;2023-04-24T22:50:59;4.03;;;1.50;;
77736;SDS011;66903;59.926;30.404;2023-04-24T22:55:59;4.30;;;1.70;;
77736;SDS011;66903;59.926;30.404;2023-04-24T23:01:00;4.35;;;1.52;;
77736;SDS011;66903;59.926;30.404;2023-04-24T23:06:00;5.50;;;1.38;;
77736;SDS011;66903;59.926;30.404;2023-04-24T23:11:01;4.22;;;1.60;;
77736;SDS011;66903;59.926;30.404;2023-04-24T23:16:01;5.40;;;1.85;;
77736;SDS011;66903;59.926;30.404;2023-04-24T23:21:04;4.40;;;1.48;;
77736;SDS011;66903;59.926;30.404;2023-04-24T23:26:04;3.45;;;1.27;;
77736;SDS011;66903;59.926;30.404;2023-04-24T23:31:05;3.90;;;1.50;;
77736;SDS011;66903;59.926;30.404;2023-04-24T23:36:05;4.63;;;1.40;;
77736;SDS011;66903;59.926;30.404;2023-04-24T23:41:06;4.40;;;1.58;;
77736;SDS011;66903;59.926;30.404;2023-04-24T23:46:06;4.45;;;1.60;;
77736;SDS011;66903;59.926;30.404;2023-04-24T23:51:07;4.00;;;1.45;;
77736;SDS011;66903;59.926;30.404;2023-04-24T23:56:07;4.75;;;1.38;;
